createdAt,value
2022-11-29T00:01:55.101Z,8.95
2022-11-29T00:04:25.099Z,8.43
2022-11-29T00:06:54.938Z,9.40
2022-11-29T00:09:25.049Z,6.55
2022-11-29T00:12:09.936Z,8.07
2022-11-29T00:14:40.231Z,22.27
2022-11-29T00:17:10.202Z,15.13
2022-11-29T00:19:40.739Z,7.93
2022-11-29T00:22:10.600Z,8.00
2022-11-29T00:24:40.453Z,5.93
2022-11-29T00:27:12.999Z,9.48
2022-11-29T00:29:42.939Z,9.00
2022-11-29T00:32:12.821Z,8.65
2022-11-29T00:34:42.965Z,7.65
2022-11-29T00:37:13.034Z,9.02
2022-11-29T00:39:43.515Z,7.80
2022-11-29T00:42:16.033Z,6.65
2022-11-29T00:44:46.086Z,7.20
2022-11-29T00:47:16.102Z,8.57
2022-11-29T00:49:45.949Z,8.13
2022-11-29T00:52:15.850Z,8.18
2022-11-29T00:54:46.040Z,10.07
2022-11-29T00:57:18.721Z,8.05
2022-11-29T00:59:48.574Z,14.68
2022-11-29T01:02:19.152Z,7.85
2022-11-29T01:04:49.100Z,8.95
2022-11-29T01:07:19.042Z,7.35
2022-11-29T01:09:48.995Z,8.77
2022-11-29T01:12:21.546Z,8.23
2022-11-29T01:14:51.394Z,8.63
2022-11-29T01:17:21.300Z,7.72
2022-11-29T01:19:51.292Z,8.18
2022-11-29T01:22:21.299Z,11.23
2022-11-29T01:24:51.412Z,9.48
2022-11-29T01:27:23.915Z,6.63
2022-11-29T01:29:54.144Z,7.00
2022-11-29T01:32:23.984Z,5.60
2022-11-29T01:34:53.847Z,7.47
2022-11-29T01:37:23.692Z,9.00
2022-11-29T01:39:53.636Z,8.48
2022-11-29T01:42:26.099Z,7.53
2022-11-29T01:45:30.915Z,7.20
2022-11-29T01:48:01.417Z,7.32
2022-11-29T01:50:31.382Z,8.75
2022-11-29T01:53:01.701Z,6.55
2022-11-29T01:55:31.685Z,9.18
2022-11-29T01:58:04.474Z,8.98
2022-11-29T02:00:34.434Z,8.15
2022-11-29T02:03:07.103Z,7.53
2022-11-29T02:05:37.198Z,7.10
2022-11-29T02:08:07.254Z,7.47
2022-11-29T02:10:46.542Z,7.45
2022-11-29T02:15:56.182Z,3.80
2022-11-29T02:18:35.172Z,7.60
2022-11-29T02:21:42.171Z,7.07
2022-11-29T02:24:44.755Z,8.18
2022-11-29T02:27:28.928Z,5.93
2022-11-29T02:30:24.943Z,8.65
2022-11-29T02:33:23.453Z,7.97
2022-11-29T02:36:19.132Z,7.63
2022-11-29T02:39:18.821Z,8.98
2022-11-29T02:41:59.631Z,8.13
2022-11-29T02:44:59.470Z,6.97
2022-11-29T02:47:35.136Z,7.25
2022-11-29T02:50:35.037Z,26.17
2022-11-29T02:53:10.810Z,8.07
2022-11-29T02:55:45.754Z,7.43
2022-11-29T02:58:21.927Z,5.65
2022-11-29T03:00:58.720Z,7.78
2022-11-29T03:03:33.715Z,5.38
2022-11-29T03:06:14.614Z,6.32
2022-11-29T03:08:50.652Z,7.22
2022-11-29T03:11:27.280Z,6.75
2022-11-29T03:14:09.353Z,6.93
2022-11-29T03:16:43.452Z,6.78
2022-11-29T03:19:30.311Z,7.78
2022-11-29T03:22:13.997Z,7.13
2022-11-29T03:24:48.615Z,5.32
2022-11-29T03:27:22.172Z,4.93
2022-11-29T03:29:55.002Z,7.05
2022-11-29T03:32:31.263Z,5.00
2022-11-29T03:35:07.423Z,7.13
2022-11-29T03:37:47.263Z,4.75
2022-11-29T03:40:20.286Z,6.60
2022-11-29T03:42:54.622Z,6.35
2022-11-29T03:45:28.418Z,8.73
2022-11-29T03:48:02.968Z,8.25
2022-11-29T03:50:37.715Z,15.13
2022-11-29T03:53:17.904Z,6.60
2022-11-29T03:55:56.934Z,6.80
2022-11-29T03:58:42.427Z,6.18
2022-11-29T04:01:44.919Z,6.75
2022-11-29T04:04:44.341Z,6.55
2022-11-29T04:07:31.382Z,8.00
2022-11-29T04:10:19.959Z,5.85
2022-11-29T04:13:08.594Z,4.85
2022-11-29T04:15:58.653Z,6.53
2022-11-29T04:18:58.073Z,5.57
2022-11-29T04:21:37.647Z,5.20
2022-11-29T04:24:37.395Z,6.63
2022-11-29T04:27:42.028Z,6.55
2022-11-29T04:30:22.211Z,7.25
2022-11-29T04:33:22.624Z,4.18
2022-11-29T04:36:19.295Z,7.03
2022-11-29T04:39:10.861Z,7.13
2022-11-29T04:42:05.505Z,5.90
2022-11-29T04:44:50.293Z,9.40
2022-11-29T04:47:47.065Z,18.60
2022-11-29T04:50:26.810Z,7.68
2022-11-29T04:53:21.782Z,4.93
2022-11-29T04:55:57.623Z,13.02
2022-11-29T04:58:33.170Z,10.85
2022-11-29T05:01:10.651Z,6.80
2022-11-29T05:03:46.781Z,7.95
2022-11-29T05:06:23.282Z,7.40
2022-11-29T05:08:59.315Z,7.20
2022-11-29T05:11:46.418Z,8.15
2022-11-29T05:14:22.956Z,8.38
2022-11-29T05:16:57.653Z,6.30
2022-11-29T05:19:39.984Z,6.07
2022-11-29T05:22:23.037Z,6.82
2022-11-29T05:24:58.476Z,6.25
2022-11-29T05:27:41.170Z,8.13
2022-11-29T05:30:14.746Z,7.47
2022-11-29T05:32:58.668Z,9.98
2022-11-29T05:35:52.278Z,7.43
2022-11-29T05:38:40.961Z,9.45
2022-11-29T05:41:20.875Z,6.93
2022-11-29T05:43:59.244Z,10.23
2022-11-29T05:46:34.076Z,16.57
2022-11-29T05:49:13.738Z,8.10
2022-11-29T05:51:47.661Z,10.40
2022-11-29T05:54:28.791Z,8.23
2022-11-29T05:57:06.252Z,7.30
2022-11-29T05:59:38.400Z,11.23
2022-11-29T06:02:15.517Z,8.50
2022-11-29T06:05:00.643Z,9.75
2022-11-29T06:07:35.468Z,9.65
2022-11-29T06:10:08.231Z,7.90
2022-11-29T06:12:38.817Z,9.00
2022-11-29T06:15:37.281Z,9.23
2022-11-29T06:18:26.265Z,8.55
2022-11-29T06:21:05.542Z,8.95
2022-11-29T06:24:00.367Z,12.23
2022-11-29T06:26:45.269Z,10.50
2022-11-29T06:29:27.020Z,10.43
2022-11-29T06:32:03.460Z,10.95
2022-11-29T06:34:40.625Z,15.40
2022-11-29T06:37:18.747Z,9.85
2022-11-29T06:39:49.218Z,10.50
2022-11-29T06:42:19.207Z,9.88
2022-11-29T06:44:49.852Z,12.82
2022-11-29T06:47:26.610Z,9.80
2022-11-29T06:50:00.924Z,8.52
2022-11-29T06:52:40.779Z,7.53
2022-11-29T06:55:17.299Z,7.70
2022-11-29T06:57:58.242Z,7.03
2022-11-29T07:00:30.004Z,8.60
2022-11-29T07:03:25.980Z,8.07
2022-11-29T07:05:56.696Z,8.27
2022-11-29T07:08:29.982Z,8.95
2022-11-29T07:11:00.907Z,7.85
2022-11-29T07:13:31.596Z,7.85
2022-11-29T07:16:07.636Z,7.95
2022-11-29T07:18:44.802Z,7.18
2022-11-29T07:21:19.986Z,7.75
2022-11-29T07:24:00.164Z,8.55
2022-11-29T07:26:36.203Z,7.10
2022-11-29T07:29:14.446Z,7.80
2022-11-29T07:31:51.709Z,8.55
2022-11-29T07:34:26.428Z,9.75
2022-11-29T07:37:03.252Z,10.50
2022-11-29T07:39:44.877Z,8.43
2022-11-29T07:42:20.963Z,9.43
2022-11-29T07:45:01.597Z,10.55
2022-11-29T07:47:35.777Z,8.30
2022-11-29T07:50:06.324Z,8.68
2022-11-29T07:52:36.705Z,9.32
2022-11-29T07:55:13.247Z,9.98
2022-11-29T07:57:47.123Z,12.77
2022-11-29T08:00:18.592Z,14.38
2022-11-29T08:02:49.875Z,13.52
2022-11-29T08:05:19.996Z,11.50
2022-11-29T08:07:50.390Z,9.98
2022-11-29T08:10:22.965Z,10.88
2022-11-29T08:12:54.431Z,59.25
2022-11-29T08:15:26.061Z,93.70
2022-11-29T08:17:56.168Z,18.52
2022-11-29T08:20:26.172Z,11.95
2022-11-29T08:22:59.250Z,13.88
2022-11-29T08:25:32.220Z,10.85
2022-11-29T08:28:02.110Z,9.38
2022-11-29T08:30:32.149Z,7.22
2022-11-29T08:33:02.173Z,10.48
2022-11-29T08:35:32.256Z,15.10
2022-11-29T08:38:03.931Z,13.57
2022-11-29T08:40:36.614Z,17.35
2022-11-29T08:43:06.664Z,9.35
2022-11-29T08:45:36.725Z,9.77
2022-11-29T08:48:06.994Z,10.20
2022-11-29T08:50:37.037Z,10.00
2022-11-29T08:53:28.044Z,34.45
2022-11-29T08:56:17.121Z,13.45
2022-11-29T08:58:52.445Z,8.52
2022-11-29T09:01:22.862Z,8.80
2022-11-29T09:04:08.002Z,9.10
2022-11-29T09:06:44.657Z,9.73
2022-11-29T09:09:14.468Z,9.18
2022-11-29T09:11:49.560Z,8.65
2022-11-29T09:14:22.304Z,7.50
2022-11-29T09:16:52.254Z,7.85
2022-11-29T09:19:22.336Z,8.90
2022-11-29T09:21:52.244Z,8.90
2022-11-29T09:24:22.112Z,10.68
2022-11-29T09:26:54.592Z,9.15
2022-11-29T09:29:24.628Z,8.40
2022-11-29T09:31:54.947Z,8.27
2022-11-29T09:34:25.034Z,8.52
2022-11-29T09:36:54.969Z,8.90
2022-11-29T09:39:24.826Z,8.43
2022-11-29T09:42:15.684Z,8.05
2022-11-29T09:44:54.788Z,10.30
2022-11-29T09:47:39.118Z,9.77
2022-11-29T09:50:24.562Z,9.32
2022-11-29T09:52:58.706Z,10.80
2022-11-29T09:55:39.913Z,10.25
2022-11-29T09:58:15.115Z,8.73
2022-11-29T10:00:49.414Z,9.50
2022-11-29T10:03:25.503Z,11.15
2022-11-29T10:06:00.420Z,14.55
2022-11-29T10:08:35.438Z,12.32
2022-11-29T10:11:17.837Z,7.93
2022-11-29T10:13:54.716Z,11.35
2022-11-29T10:16:28.437Z,10.55
2022-11-29T10:19:03.348Z,11.38
2022-11-29T10:21:37.156Z,9.98
2022-11-29T10:24:10.270Z,9.80
2022-11-29T10:26:40.803Z,10.75
2022-11-29T10:29:16.414Z,11.38
2022-11-29T10:31:49.539Z,9.70
2022-11-29T10:34:21.054Z,7.32
2022-11-29T10:36:53.190Z,7.95
2022-11-29T10:39:26.299Z,8.88
2022-11-29T10:41:58.705Z,12.77
2022-11-29T10:44:32.036Z,7.15
2022-11-29T10:47:07.828Z,7.07
2022-11-29T10:49:41.113Z,9.23
2022-11-29T10:52:20.724Z,7.28
2022-11-29T10:54:51.470Z,8.48
2022-11-29T10:57:24.073Z,6.63
2022-11-29T11:00:09.964Z,6.93
2022-11-29T11:02:40.274Z,6.40
2022-11-29T11:05:18.962Z,7.20
2022-11-29T11:07:49.067Z,8.80
2022-11-29T11:10:26.525Z,6.70
2022-11-29T11:13:05.619Z,11.73
2022-11-29T11:15:38.660Z,12.27
2022-11-29T11:18:10.198Z,9.43
2022-11-29T11:20:44.420Z,9.40
2022-11-29T11:23:27.520Z,6.93
2022-11-29T11:26:02.507Z,9.15
2022-11-29T11:28:34.697Z,11.60
2022-11-29T11:31:09.655Z,9.85
2022-11-29T11:33:41.185Z,12.32
2022-11-29T11:36:14.635Z,10.10
2022-11-29T11:38:52.909Z,6.80
2022-11-29T11:41:46.039Z,6.73
2022-11-29T11:44:47.584Z,7.28
2022-11-29T11:47:22.512Z,7.22
2022-11-29T11:49:53.673Z,20.02
2022-11-29T11:52:25.869Z,11.70
2022-11-29T11:54:58.534Z,7.32
2022-11-29T11:57:29.720Z,8.93
2022-11-29T12:00:06.606Z,9.82
2022-11-29T12:02:44.061Z,8.95
2022-11-29T12:05:16.411Z,8.15
2022-11-29T12:10:40.944Z,7.57
2022-11-29T12:13:20.558Z,11.50
2022-11-29T12:15:52.850Z,10.07
2022-11-29T12:18:30.957Z,19.35
2022-11-29T12:21:06.735Z,12.65
2022-11-29T12:23:44.383Z,10.85
2022-11-29T12:26:41.116Z,9.85
2022-11-29T12:29:13.964Z,8.57
2022-11-29T12:31:55.575Z,9.13
2022-11-29T12:34:43.126Z,8.63
2022-11-29T12:37:18.121Z,8.43
2022-11-29T12:40:00.162Z,5.75
2022-11-29T12:42:39.557Z,9.48
2022-11-29T12:45:33.427Z,8.70
2022-11-29T12:48:10.945Z,9.50
2022-11-29T12:50:53.865Z,8.38
2022-11-29T12:53:33.296Z,9.88
2022-11-29T12:56:13.754Z,14.30
2022-11-29T12:58:54.189Z,9.32
2022-11-29T13:01:31.099Z,8.73
2022-11-29T13:04:05.152Z,6.60
2022-11-29T13:06:44.732Z,8.00
2022-11-29T13:09:52.933Z,7.00
2022-11-29T13:12:25.074Z,8.27
2022-11-29T13:14:59.059Z,11.18
2022-11-29T13:17:35.898Z,7.90
2022-11-29T13:20:12.467Z,16.90
2022-11-29T13:22:48.286Z,10.35
2022-11-29T13:25:19.869Z,6.53
2022-11-29T13:27:58.509Z,7.38
2022-11-29T13:30:28.956Z,9.85
2022-11-29T13:33:02.972Z,7.90
2022-11-29T13:35:38.969Z,6.63
2022-11-29T13:38:17.864Z,7.57
2022-11-29T13:40:55.225Z,8.38
2022-11-29T13:43:30.756Z,8.52
2022-11-29T13:46:08.324Z,7.18
2022-11-29T13:48:40.523Z,8.23
2022-11-29T13:51:26.941Z,7.15
2022-11-29T13:54:01.228Z,9.02
2022-11-29T13:56:36.609Z,9.45
2022-11-29T13:59:11.663Z,8.85
2022-11-29T14:01:49.226Z,6.65
2022-11-29T14:04:39.011Z,8.88
2022-11-29T14:07:14.734Z,6.82
2022-11-29T14:09:59.894Z,8.30
2022-11-29T14:12:39.606Z,7.32
2022-11-29T14:15:21.311Z,7.40
2022-11-29T14:17:54.194Z,9.52
2022-11-29T14:20:47.806Z,7.25
2022-11-29T14:23:19.258Z,8.25
2022-11-29T14:26:21.490Z,10.60
2022-11-29T14:28:56.283Z,10.68
2022-11-29T14:31:56.718Z,15.48
2022-11-29T14:34:51.247Z,10.00
2022-11-29T14:37:37.885Z,9.13
2022-11-29T14:40:21.292Z,7.57
2022-11-29T14:42:52.876Z,8.15
2022-11-29T14:45:31.202Z,11.50
2022-11-29T14:48:01.846Z,9.17
2022-11-29T14:50:35.022Z,10.13
2022-11-29T14:53:05.728Z,11.85
2022-11-29T14:55:38.400Z,9.27
2022-11-29T14:58:23.219Z,19.83
2022-11-29T15:01:16.335Z,25.05
2022-11-29T15:03:50.568Z,14.90
2022-11-29T15:06:26.957Z,11.65
2022-11-29T15:09:04.516Z,9.27
2022-11-29T15:11:50.931Z,9.05
2022-11-29T15:14:25.758Z,9.85
2022-11-29T15:17:05.674Z,20.02
2022-11-29T15:19:56.152Z,14.70
2022-11-29T15:22:29.056Z,9.18
2022-11-29T15:25:02.781Z,16.30
2022-11-29T15:27:35.148Z,21.83
2022-11-29T15:30:21.927Z,10.18
2022-11-29T15:32:54.408Z,9.57
2022-11-29T15:35:24.428Z,15.25
2022-11-29T15:37:54.916Z,12.80
2022-11-29T15:40:29.165Z,9.50
2022-11-29T15:43:05.204Z,8.13
2022-11-29T15:45:36.856Z,7.50
2022-11-29T15:48:19.370Z,6.95
2022-11-29T15:50:55.480Z,6.05
2022-11-29T15:53:29.404Z,6.75
2022-11-29T15:56:00.134Z,7.97
2022-11-29T15:58:31.313Z,10.20
2022-11-29T16:01:01.489Z,16.85
2022-11-29T16:03:36.406Z,10.52
2022-11-29T16:06:11.873Z,8.75
2022-11-29T16:08:44.639Z,9.70
2022-11-29T16:11:18.309Z,12.63
2022-11-29T16:14:16.862Z,17.65
2022-11-29T16:16:48.942Z,10.35
2022-11-29T16:19:29.116Z,7.03
2022-11-29T16:22:03.870Z,9.23
2022-11-29T16:24:37.031Z,11.23
2022-11-29T16:27:08.046Z,13.85
2022-11-29T16:29:39.972Z,14.68
2022-11-29T16:32:17.788Z,20.20
2022-11-29T16:34:50.311Z,18.08
2022-11-29T16:37:23.175Z,13.88
2022-11-29T16:39:54.521Z,13.10
2022-11-29T16:42:26.808Z,10.68
2022-11-29T16:44:59.872Z,10.95
2022-11-29T16:47:30.787Z,10.00
2022-11-29T16:50:16.598Z,7.75
2022-11-29T16:52:47.542Z,8.80
2022-11-29T16:55:19.064Z,8.82
2022-11-29T16:57:50.282Z,8.65
2022-11-29T17:00:27.882Z,11.82
2022-11-29T17:02:57.828Z,7.65
2022-11-29T17:05:30.344Z,10.60
2022-11-29T17:08:00.326Z,8.85
2022-11-29T17:10:30.264Z,15.63
2022-11-29T17:13:01.583Z,13.13
2022-11-29T17:15:31.424Z,12.13
2022-11-29T17:18:01.288Z,12.02
2022-11-29T17:20:34.018Z,13.10
2022-11-29T17:23:03.928Z,15.95
2022-11-29T17:25:33.772Z,31.55
2022-11-29T17:28:03.588Z,27.95
2022-11-29T17:30:33.518Z,27.60
2022-11-29T17:33:03.374Z,26.90
2022-11-29T17:35:37.922Z,20.20
2022-11-29T17:38:07.816Z,12.75
2022-11-29T17:40:37.719Z,15.30
2022-11-29T17:43:07.562Z,20.77
2022-11-29T17:45:37.574Z,16.02
2022-11-29T17:48:07.880Z,14.48
2022-11-29T17:50:40.545Z,12.70
2022-11-29T17:53:10.527Z,15.27
2022-11-29T17:55:40.447Z,12.57
2022-11-29T17:58:10.313Z,11.07
2022-11-29T18:00:40.235Z,12.15
2022-11-29T18:03:10.139Z,38.92
2022-11-29T18:05:42.605Z,32.13
2022-11-29T18:08:12.532Z,48.88
2022-11-29T18:10:42.410Z,55.53
2022-11-29T18:13:12.358Z,44.50
2022-11-29T18:15:42.559Z,54.45
2022-11-29T18:18:12.391Z,30.00
2022-11-29T18:20:44.924Z,26.40
2022-11-29T18:23:14.788Z,23.48
2022-11-29T18:25:44.652Z,11.80
2022-11-29T18:28:14.757Z,11.43
2022-11-29T18:30:44.747Z,11.00
2022-11-29T18:33:14.680Z,10.40
2022-11-29T18:35:47.221Z,8.80
2022-11-29T18:38:17.262Z,9.95
2022-11-29T18:40:48.416Z,9.10
2022-11-29T18:43:19.668Z,8.45
2022-11-29T18:45:49.817Z,9.98
2022-11-29T18:48:19.812Z,7.43
2022-11-29T18:50:52.320Z,7.97
2022-11-29T18:53:22.337Z,6.13
2022-11-29T18:56:02.669Z,6.38
2022-11-29T18:58:32.926Z,6.22
2022-11-29T19:01:07.287Z,6.90
2022-11-29T19:03:39.147Z,7.95
2022-11-29T19:06:13.239Z,8.82
2022-11-29T19:08:43.551Z,9.30
2022-11-29T19:11:14.945Z,9.38
2022-11-29T19:13:44.972Z,9.32
2022-11-29T19:16:17.909Z,8.55
2022-11-29T19:18:48.399Z,11.23
2022-11-29T19:21:22.732Z,16.48
2022-11-29T19:23:54.980Z,9.30
2022-11-29T19:26:26.742Z,8.80
2022-11-29T19:28:56.968Z,7.32
2022-11-29T19:31:27.691Z,25.27
2022-11-29T19:33:58.307Z,51.50
2022-11-29T19:36:32.737Z,21.73
2022-11-29T19:39:03.570Z,10.85
2022-11-29T19:41:34.806Z,11.30
2022-11-29T19:44:06.076Z,8.20
2022-11-29T19:46:37.666Z,8.48
2022-11-29T19:49:09.007Z,8.73
2022-11-29T19:51:41.525Z,9.02
2022-11-29T19:54:12.981Z,6.72
2022-11-29T19:56:43.159Z,7.18
2022-11-29T19:59:13.125Z,9.43
2022-11-29T20:01:43.377Z,22.23
2022-11-29T20:04:16.829Z,16.88
2022-11-29T20:06:51.629Z,12.35
2022-11-29T20:09:21.952Z,7.32
2022-11-29T20:11:51.887Z,5.72
2022-11-29T20:14:21.821Z,5.68
2022-11-29T20:16:51.791Z,6.78
2022-11-29T20:19:21.653Z,8.27
2022-11-29T20:21:54.141Z,8.13
2022-11-29T20:24:24.065Z,16.20
2022-11-29T20:26:53.942Z,11.32
2022-11-29T20:29:27.284Z,8.55
2022-11-29T20:31:57.180Z,32.45
2022-11-29T20:34:27.852Z,42.20
2022-11-29T20:37:13.014Z,36.67
2022-11-29T20:39:47.271Z,70.93
2022-11-29T20:42:47.596Z,16.33
2022-11-29T20:45:18.893Z,12.73
2022-11-29T20:47:53.900Z,12.40
2022-11-29T20:50:25.656Z,10.45
2022-11-29T20:53:10.197Z,14.07
2022-11-29T20:55:46.445Z,17.13
2022-11-29T20:58:19.480Z,12.60
2022-11-29T21:00:49.476Z,12.57
2022-11-29T21:03:20.566Z,12.98
2022-11-29T21:05:50.899Z,13.05
2022-11-29T21:08:24.720Z,12.40
2022-11-29T21:10:55.124Z,11.82
2022-11-29T21:13:26.524Z,12.68
2022-11-29T21:15:57.422Z,12.00
2022-11-29T21:18:30.421Z,16.40
2022-11-29T21:21:08.146Z,19.48
2022-11-29T21:23:48.558Z,28.30
2022-11-29T21:26:20.380Z,21.48
2022-11-29T21:28:58.810Z,18.08
2022-11-29T21:31:29.496Z,24.63
2022-11-29T21:34:00.027Z,29.30
2022-11-29T21:36:30.099Z,34.03
2022-11-29T21:39:05.267Z,40.22
2022-11-29T21:41:36.439Z,43.22
2022-11-29T21:44:07.739Z,52.08
2022-11-29T21:46:38.326Z,34.80
2022-11-29T21:49:08.457Z,30.38
2022-11-29T21:51:38.382Z,30.67
2022-11-29T21:54:10.908Z,30.50
2022-11-29T21:56:40.799Z,31.65
2022-11-29T21:59:10.767Z,62.90
2022-11-29T22:01:40.814Z,63.42
2022-11-29T22:04:10.919Z,44.15
2022-11-29T22:06:41.042Z,22.35
2022-11-29T22:09:14.010Z,22.50
2022-11-29T22:11:43.971Z,16.05
2022-11-29T22:14:18.971Z,18.17
2022-11-29T22:16:50.808Z,18.20
2022-11-29T22:19:23.052Z,20.15
2022-11-29T22:21:54.048Z,14.25
2022-11-29T22:24:28.354Z,14.55
2022-11-29T22:26:58.868Z,16.65
2022-11-29T22:29:29.039Z,15.85
2022-11-29T22:32:01.323Z,21.88
2022-11-29T22:34:31.524Z,24.23
2022-11-29T22:37:01.635Z,26.55
2022-11-29T22:39:34.076Z,36.17
2022-11-29T22:42:04.028Z,32.47
2022-11-29T22:44:34.106Z,28.48
2022-11-29T22:47:04.038Z,29.83
2022-11-29T22:49:33.985Z,27.35
2022-11-29T22:52:03.833Z,27.55
2022-11-29T22:54:36.437Z,27.10
2022-11-29T22:57:06.468Z,26.77
2022-11-29T22:59:36.466Z,26.13
2022-11-29T23:02:06.359Z,37.50
2022-11-29T23:04:36.265Z,21.50
2022-11-29T23:07:06.202Z,22.00
2022-11-29T23:09:38.666Z,33.40
2022-11-29T23:12:09.199Z,28.65
2022-11-29T23:14:39.117Z,25.15
2022-11-29T23:17:09.080Z,25.65
2022-11-29T23:19:38.959Z,32.70
2022-11-29T23:22:08.745Z,49.47
2022-11-29T23:24:42.767Z,53.38
2022-11-29T23:27:12.710Z,72.85
2022-11-29T23:29:42.624Z,74.85
2022-11-29T23:32:12.476Z,71.22
2022-11-29T23:34:42.419Z,42.13
2022-11-29T23:37:12.323Z,38.00
2022-11-29T23:39:44.800Z,63.35
2022-11-29T23:42:14.679Z,57.95
2022-11-29T23:44:44.861Z,56.42
2022-11-29T23:47:16.331Z,56.83
2022-11-29T23:49:46.250Z,42.78
2022-11-29T23:52:16.193Z,33.70
2022-11-29T23:54:48.895Z,35.17
2022-11-29T23:57:19.024Z,33.45
2022-11-29T23:59:50.200Z,65.93
